sensor_id;sensor_type;location;lat;lon;timestamp;temperature;humidity
29813;DHT22;16707;48.106;11.548;2023-04-24T00:02:11;10.50;99.90
29813;DHT22;16707;48.106;11.548;2023-04-24T00:04:39;10.50;99.90
29813;DHT22;16707;48.106;11.548;2023-04-24T00:07:06;10.50;99.90
29813;DHT22;16707;48.106;11.548;2023-04-24T00:09:33;10.60;99.90
29813;DHT22;16707;48.106;11.548;2023-04-24T00:12:02;10.60;99.90
29813;DHT22;16707;48.106;11.548;2023-04-24T00:14:30;10.60;99.90
29813;DHT22;16707;48.106;11.548;2023-04-24T00:16:57;10.50;99.90
29813;DHT22;16707;48.106;11.548;2023-04-24T00:19:24;10.40;99.90
29813;DHT22;16707;48.106;11.548;2023-04-24T00:21:55;10.40;99.90
29813;DHT22;16707;48.106;11.548;2023-04-24T00:24:24;10.40;99.90
29813;DHT22;16707;48.106;11.548;2023-04-24T00:26:57;10.30;99.90
29813;DHT22;16707;48.106;11.548;2023-04-24T00:29:29;10.40;99.90
29813;DHT22;16707;48.106;11.548;2023-04-24T00:32:05;10.40;99.90
29813;DHT22;16707;48.106;11.548;2023-04-24T00:34:35;10.30;99.90
29813;DHT22;16707;48.106;11.548;2023-04-24T00:37:07;10.20;99.90
29813;DHT22;16707;48.106;11.548;2023-04-24T00:39:35;10.20;99.90
29813;DHT22;16707;48.106;11.548;2023-04-24T00:42:02;10.20;99.90
29813;DHT22;16707;48.106;11.548;2023-04-24T00:44:33;10.20;99.90
29813;DHT22;16707;48.106;11.548;2023-04-24T00:47:01;10.10;99.90
29813;DHT22;16707;48.106;11.548;2023-04-24T00:49:28;10.10;99.90
29813;DHT22;16707;48.106;11.548;2023-04-24T00:51:55;10.10;99.90
29813;DHT22;16707;48.106;11.548;2023-04-24T00:54:25;10.10;99.90
29813;DHT22;16707;48.106;11.548;2023-04-24T00:56:55;10.10;99.90
29813;DHT22;16707;48.106;11.548;2023-04-24T00:59:22;10.10;99.90
29813;DHT22;16707;48.106;11.548;2023-04-24T01:01:56;10.00;99.90
29813;DHT22;16707;48.106;11.548;2023-04-24T01:04:29;10.00;99.90
29813;DHT22;16707;48.106;11.548;2023-04-24T01:06:58;9.90;99.90
29813;DHT22;16707;48.106;11.548;2023-04-24T01:09:31;10.00;99.90
29813;DHT22;16707;48.106;11.548;2023-04-24T01:12:04;9.90;99.90
29813;DHT22;16707;48.106;11.548;2023-04-24T01:14:32;9.90;99.90
29813;DHT22;16707;48.106;11.548;2023-04-24T01:17:01;10.00;99.90
29813;DHT22;16707;48.106;11.548;2023-04-24T01:19:28;10.00;99.90
29813;DHT22;16707;48.106;11.548;2023-04-24T01:21:58;9.90;99.90
29813;DHT22;16707;48.106;11.548;2023-04-24T01:24:27;9.80;99.90
29813;DHT22;16707;48.106;11.548;2023-04-24T01:26:55;9.80;99.90
29813;DHT22;16707;48.106;11.548;2023-04-24T01:29:22;9.80;99.90
29813;DHT22;16707;48.106;11.548;2023-04-24T01:31:51;9.80;99.90
29813;DHT22;16707;48.106;11.548;2023-04-24T01:34:18;9.80;99.90
29813;DHT22;16707;48.106;11.548;2023-04-24T01:36:46;9.80;99.90
29813;DHT22;16707;48.106;11.548;2023-04-24T01:39:15;9.80;99.90
29813;DHT22;16707;48.106;11.548;2023-04-24T01:41:50;9.80;99.90
29813;DHT22;16707;48.106;11.548;2023-04-24T01:44:19;9.70;99.90
29813;DHT22;16707;48.106;11.548;2023-04-24T01:46:46;9.70;99.90
29813;DHT22;16707;48.106;11.548;2023-04-24T01:49:16;9.70;99.90
29813;DHT22;16707;48.106;11.548;2023-04-24T01:51:46;9.60;99.90
29813;DHT22;16707;48.106;11.548;2023-04-24T01:54:16;9.70;99.90
29813;DHT22;16707;48.106;11.548;2023-04-24T01:56:45;9.60;99.90
29813;DHT22;16707;48.106;11.548;2023-04-24T01:59:15;9.60;99.90
29813;DHT22;16707;48.106;11.548;2023-04-24T02:01:43;9.60;99.90
29813;DHT22;16707;48.106;11.548;2023-04-24T02:04:11;9.60;99.90
29813;DHT22;16707;48.106;11.548;2023-04-24T02:06:48;9.60;99.90
29813;DHT22;16707;48.106;11.548;2023-04-24T02:09:24;9.60;99.90
29813;DHT22;16707;48.106;11.548;2023-04-24T02:11:54;9.60;99.90
29813;DHT22;16707;48.106;11.548;2023-04-24T02:14:26;9.60;99.90
29813;DHT22;16707;48.106;11.548;2023-04-24T02:16:59;9.60;99.90
29813;DHT22;16707;48.106;11.548;2023-04-24T02:19:38;9.60;99.90
29813;DHT22;16707;48.106;11.548;2023-04-24T02:22:09;9.60;99.90
29813;DHT22;16707;48.106;11.548;2023-04-24T02:24:38;9.60;99.90
29813;DHT22;16707;48.106;11.548;2023-04-24T02:27:14;9.60;99.90
29813;DHT22;16707;48.106;11.548;2023-04-24T02:29:46;9.60;99.90
29813;DHT22;16707;48.106;11.548;2023-04-24T02:32:13;9.60;99.90
29813;DHT22;16707;48.106;11.548;2023-04-24T02:34:41;9.60;99.90
29813;DHT22;16707;48.106;11.548;2023-04-24T02:37:14;9.60;99.90
29813;DHT22;16707;48.106;11.548;2023-04-24T02:39:43;9.60;99.90
29813;DHT22;16707;48.106;11.548;2023-04-24T02:42:19;9.60;99.90
29813;DHT22;16707;48.106;11.548;2023-04-24T02:44:48;9.60;99.90
29813;DHT22;16707;48.106;11.548;2023-04-24T02:47:16;9.60;99.90
29813;DHT22;16707;48.106;11.548;2023-04-24T02:49:47;9.60;99.90
29813;DHT22;16707;48.106;11.548;2023-04-24T02:52:14;9.60;99.90
29813;DHT22;16707;48.106;11.548;2023-04-24T02:54:42;9.60;99.90
29813;DHT22;16707;48.106;11.548;2023-04-24T02:57:10;9.60;99.90
29813;DHT22;16707;48.106;11.548;2023-04-24T02:59:40;9.60;99.90
29813;DHT22;16707;48.106;11.548;2023-04-24T03:02:08;9.60;99.90
29813;DHT22;16707;48.106;11.548;2023-04-24T03:04:38;9.60;99.90
29813;DHT22;16707;48.106;11.548;2023-04-24T03:07:08;9.50;99.90
29813;DHT22;16707;48.106;11.548;2023-04-24T03:09:36;9.50;99.90
29813;DHT22;16707;48.106;11.548;2023-04-24T03:12:03;9.50;99.90
29813;DHT22;16707;48.106;11.548;2023-04-24T03:14:30;9.50;99.90
29813;DHT22;16707;48.106;11.548;2023-04-24T03:16:58;9.40;99.90
29813;DHT22;16707;48.106;11.548;2023-04-24T03:19:30;9.50;99.90
29813;DHT22;16707;48.106;11.548;2023-04-24T03:22:03;9.50;99.90
29813;DHT22;16707;48.106;11.548;2023-04-24T03:24:35;9.50;99.90
29813;DHT22;16707;48.106;11.548;2023-04-24T03:27:02;9.50;99.90
29813;DHT22;16707;48.106;11.548;2023-04-24T03:29:34;9.50;99.90
29813;DHT22;16707;48.106;11.548;2023-04-24T03:32:01;9.50;99.90
29813;DHT22;16707;48.106;11.548;2023-04-24T03:34:30;9.40;99.90
29813;DHT22;16707;48.106;11.548;2023-04-24T03:36:57;9.50;99.90
29813;DHT22;16707;48.106;11.548;2023-04-24T03:39:42;9.50;99.90
29813;DHT22;16707;48.106;11.548;2023-04-24T03:42:10;9.40;99.90
29813;DHT22;16707;48.106;11.548;2023-04-24T03:44:37;9.50;99.90
29813;DHT22;16707;48.106;11.548;2023-04-24T03:47:04;9.40;99.90
29813;DHT22;16707;48.106;11.548;2023-04-24T03:49:33;9.40;99.90
29813;DHT22;16707;48.106;11.548;2023-04-24T03:52:03;9.40;99.90
29813;DHT22;16707;48.106;11.548;2023-04-24T03:54:30;9.40;99.90
29813;DHT22;16707;48.106;11.548;2023-04-24T03:57:05;9.40;99.90
29813;DHT22;16707;48.106;11.548;2023-04-24T03:59:32;9.40;99.90
29813;DHT22;16707;48.106;11.548;2023-04-24T04:01:59;9.40;99.90
29813;DHT22;16707;48.106;11.548;2023-04-24T04:04:27;9.40;99.90
29813;DHT22;16707;48.106;11.548;2023-04-24T04:07:02;9.40;99.90
29813;DHT22;16707;48.106;11.548;2023-04-24T04:09:30;9.40;99.90
29813;DHT22;16707;48.106;11.548;2023-04-24T04:11:58;9.40;99.90
29813;DHT22;16707;48.106;11.548;2023-04-24T04:14:26;9.50;99.90
29813;DHT22;16707;48.106;11.548;2023-04-24T04:17:00;9.50;99.90
29813;DHT22;16707;48.106;11.548;2023-04-24T04:19:27;9.50;99.90
29813;DHT22;16707;48.106;11.548;2023-04-24T04:21:54;9.50;99.90
29813;DHT22;16707;48.106;11.548;2023-04-24T04:24:23;9.50;99.90
29813;DHT22;16707;48.106;11.548;2023-04-24T04:26:52;9.40;99.90
29813;DHT22;16707;48.106;11.548;2023-04-24T04:29:25;9.40;99.90
29813;DHT22;16707;48.106;11.548;2023-04-24T04:31:56;9.30;99.90
29813;DHT22;16707;48.106;11.548;2023-04-24T04:34:35;9.40;99.90
29813;DHT22;16707;48.106;11.548;2023-04-24T04:37:10;9.40;99.90
29813;DHT22;16707;48.106;11.548;2023-04-24T04:39:42;9.40;99.90
29813;DHT22;16707;48.106;11.548;2023-04-24T04:42:22;9.50;99.90
29813;DHT22;16707;48.106;11.548;2023-04-24T04:44:52;9.40;99.90
29813;DHT22;16707;48.106;11.548;2023-04-24T04:47:21;9.40;99.90
29813;DHT22;16707;48.106;11.548;2023-04-24T04:49:49;9.40;99.90
29813;DHT22;16707;48.106;11.548;2023-04-24T04:52:16;9.30;99.90
29813;DHT22;16707;48.106;11.548;2023-04-24T04:54:45;9.30;99.90
29813;DHT22;16707;48.106;11.548;2023-04-24T04:57:15;9.50;99.90
29813;DHT22;16707;48.106;11.548;2023-04-24T04:59:45;9.40;99.90
29813;DHT22;16707;48.106;11.548;2023-04-24T05:02:18;9.40;99.90
29813;DHT22;16707;48.106;11.548;2023-04-24T05:04:51;9.40;99.90
29813;DHT22;16707;48.106;11.548;2023-04-24T05:07:27;9.70;99.90
29813;DHT22;16707;48.106;11.548;2023-04-24T05:10:00;9.90;99.90
29813;DHT22;16707;48.106;11.548;2023-04-24T05:12:30;9.70;99.90
29813;DHT22;16707;48.106;11.548;2023-04-24T05:15:02;9.80;99.90
29813;DHT22;16707;48.106;11.548;2023-04-24T05:17:30;9.80;99.90
29813;DHT22;16707;48.106;11.548;2023-04-24T05:20:06;9.80;99.90
29813;DHT22;16707;48.106;11.548;2023-04-24T05:22:35;9.80;99.90
29813;DHT22;16707;48.106;11.548;2023-04-24T05:25:09;9.80;99.90
29813;DHT22;16707;48.106;11.548;2023-04-24T05:27:41;9.80;99.90
29813;DHT22;16707;48.106;11.548;2023-04-24T05:30:15;9.80;99.90
29813;DHT22;16707;48.106;11.548;2023-04-24T05:32:47;9.80;99.90
29813;DHT22;16707;48.106;11.548;2023-04-24T05:35:24;9.90;99.90
29813;DHT22;16707;48.106;11.548;2023-04-24T05:37:52;10.00;99.90
29813;DHT22;16707;48.106;11.548;2023-04-24T05:40:29;10.10;99.90
29813;DHT22;16707;48.106;11.548;2023-04-24T05:42:59;10.10;99.90
29813;DHT22;16707;48.106;11.548;2023-04-24T05:45:29;10.20;99.90
29813;DHT22;16707;48.106;11.548;2023-04-24T05:47:56;10.20;99.90
29813;DHT22;16707;48.106;11.548;2023-04-24T05:50:28;10.30;99.90
29813;DHT22;16707;48.106;11.548;2023-04-24T05:52:58;10.40;99.90
29813;DHT22;16707;48.106;11.548;2023-04-24T05:55:33;10.40;99.90
29813;DHT22;16707;48.106;11.548;2023-04-24T05:58:01;10.40;99.90
29813;DHT22;16707;48.106;11.548;2023-04-24T06:00:28;10.30;99.90
29813;DHT22;16707;48.106;11.548;2023-04-24T06:03:09;10.50;99.90
29813;DHT22;16707;48.106;11.548;2023-04-24T06:05:39;10.70;99.90
29813;DHT22;16707;48.106;11.548;2023-04-24T06:08:11;10.80;99.90
29813;DHT22;16707;48.106;11.548;2023-04-24T06:10:49;11.00;99.90
29813;DHT22;16707;48.106;11.548;2023-04-24T06:13:19;10.90;99.90
29813;DHT22;16707;48.106;11.548;2023-04-24T06:15:54;11.10;99.90
29813;DHT22;16707;48.106;11.548;2023-04-24T06:18:21;11.30;99.90
29813;DHT22;16707;48.106;11.548;2023-04-24T06:20:49;11.50;99.90
29813;DHT22;16707;48.106;11.548;2023-04-24T06:23:17;11.60;99.90
29813;DHT22;16707;48.106;11.548;2023-04-24T06:25:46;11.80;99.90
29813;DHT22;16707;48.106;11.548;2023-04-24T06:28:20;11.90;99.90
29813;DHT22;16707;48.106;11.548;2023-04-24T06:30:47;11.80;99.90
29813;DHT22;16707;48.106;11.548;2023-04-24T06:33:21;11.60;99.90
29813;DHT22;16707;48.106;11.548;2023-04-24T06:35:48;11.70;99.90
29813;DHT22;16707;48.106;11.548;2023-04-24T06:38:21;11.60;99.90
29813;DHT22;16707;48.106;11.548;2023-04-24T06:40:57;11.90;99.90
29813;DHT22;16707;48.106;11.548;2023-04-24T06:43:24;12.10;99.90
29813;DHT22;16707;48.106;11.548;2023-04-24T06:45:51;12.20;99.90
29813;DHT22;16707;48.106;11.548;2023-04-24T06:48:19;12.20;99.90
29813;DHT22;16707;48.106;11.548;2023-04-24T06:50:48;12.30;99.90
29813;DHT22;16707;48.106;11.548;2023-04-24T06:53:15;12.30;99.90
29813;DHT22;16707;48.106;11.548;2023-04-24T06:55:43;12.60;99.90
29813;DHT22;16707;48.106;11.548;2023-04-24T06:58:13;12.90;99.90
29813;DHT22;16707;48.106;11.548;2023-04-24T07:00:43;13.10;99.90
29813;DHT22;16707;48.106;11.548;2023-04-24T07:03:11;13.70;99.90
29813;DHT22;16707;48.106;11.548;2023-04-24T07:05:38;14.00;99.90
29813;DHT22;16707;48.106;11.548;2023-04-24T07:08:13;13.90;99.90
29813;DHT22;16707;48.106;11.548;2023-04-24T07:10:42;13.90;99.90
29813;DHT22;16707;48.106;11.548;2023-04-24T07:13:14;13.70;99.90
29813;DHT22;16707;48.106;11.548;2023-04-24T07:15:44;13.70;99.90
29813;DHT22;16707;48.106;11.548;2023-04-24T07:18:12;13.60;99.90
29813;DHT22;16707;48.106;11.548;2023-04-24T07:20:39;13.50;99.90
29813;DHT22;16707;48.106;11.548;2023-04-24T07:23:18;13.50;99.90
29813;DHT22;16707;48.106;11.548;2023-04-24T07:25:47;13.50;99.90
29813;DHT22;16707;48.106;11.548;2023-04-24T07:28:21;13.40;99.90
29813;DHT22;16707;48.106;11.548;2023-04-24T07:30:51;13.40;99.60
29813;DHT22;16707;48.106;11.548;2023-04-24T07:33:19;13.70;99.50
29813;DHT22;16707;48.106;11.548;2023-04-24T07:35:51;13.90;99.30
29813;DHT22;16707;48.106;11.548;2023-04-24T07:38:32;13.70;98.40
29813;DHT22;16707;48.106;11.548;2023-04-24T07:40:59;13.40;98.90
29813;DHT22;16707;48.106;11.548;2023-04-24T07:43:27;13.20;99.90
29813;DHT22;16707;48.106;11.548;2023-04-24T07:45:54;13.00;99.90
29813;DHT22;16707;48.106;11.548;2023-04-24T07:48:22;12.80;99.90
29813;DHT22;16707;48.106;11.548;2023-04-24T07:50:55;12.70;99.90
29813;DHT22;16707;48.106;11.548;2023-04-24T07:53:22;12.70;99.90
29813;DHT22;16707;48.106;11.548;2023-04-24T07:55:54;12.90;99.90
29813;DHT22;16707;48.106;11.548;2023-04-24T07:58:21;12.90;99.90
29813;DHT22;16707;48.106;11.548;2023-04-24T08:00:53;13.00;99.80
29813;DHT22;16707;48.106;11.548;2023-04-24T08:03:20;13.30;99.90
29813;DHT22;16707;48.106;11.548;2023-04-24T08:05:50;13.60;99.20
29813;DHT22;16707;48.106;11.548;2023-04-24T08:08:19;13.60;98.40
29813;DHT22;16707;48.106;11.548;2023-04-24T08:10:46;13.60;98.00
29813;DHT22;16707;48.106;11.548;2023-04-24T08:13:14;13.90;97.30
29813;DHT22;16707;48.106;11.548;2023-04-24T08:15:44;14.00;96.60
29813;DHT22;16707;48.106;11.548;2023-04-24T08:18:19;13.80;97.40
29813;DHT22;16707;48.106;11.548;2023-04-24T08:20:46;13.60;97.80
29813;DHT22;16707;48.106;11.548;2023-04-24T08:23:14;13.60;97.60
29813;DHT22;16707;48.106;11.548;2023-04-24T08:25:41;13.10;98.00
29813;DHT22;16707;48.106;11.548;2023-04-24T08:28:09;12.90;99.10
29813;DHT22;16707;48.106;11.548;2023-04-24T08:30:36;12.70;99.80
29813;DHT22;16707;48.106;11.548;2023-04-24T08:33:04;12.70;99.90
29813;DHT22;16707;48.106;11.548;2023-04-24T08:35:32;12.60;99.90
29813;DHT22;16707;48.106;11.548;2023-04-24T08:37:59;12.60;99.90
29813;DHT22;16707;48.106;11.548;2023-04-24T08:40:28;12.20;99.90
29813;DHT22;16707;48.106;11.548;2023-04-24T08:43:00;11.70;99.90
29813;DHT22;16707;48.106;11.548;2023-04-24T08:45:28;11.70;99.90
29813;DHT22;16707;48.106;11.548;2023-04-24T08:47:58;11.70;99.90
29813;DHT22;16707;48.106;11.548;2023-04-24T08:50:25;11.80;99.90
29813;DHT22;16707;48.106;11.548;2023-04-24T08:52:54;12.50;99.90
29813;DHT22;16707;48.106;11.548;2023-04-24T08:55:25;12.80;99.40
29813;DHT22;16707;48.106;11.548;2023-04-24T08:57:59;12.70;97.90
29813;DHT22;16707;48.106;11.548;2023-04-24T09:00:28;12.30;98.40
29813;DHT22;16707;48.106;11.548;2023-04-24T09:03:00;12.00;98.60
29813;DHT22;16707;48.106;11.548;2023-04-24T09:05:30;11.80;99.10
29813;DHT22;16707;48.106;11.548;2023-04-24T09:07:59;11.50;99.20
29813;DHT22;16707;48.106;11.548;2023-04-24T09:10:30;11.50;98.60
29813;DHT22;16707;48.106;11.548;2023-04-24T09:13:01;11.50;99.20
29813;DHT22;16707;48.106;11.548;2023-04-24T09:15:29;11.60;99.30
29813;DHT22;16707;48.106;11.548;2023-04-24T09:17:56;11.80;99.30
29813;DHT22;16707;48.106;11.548;2023-04-24T09:20:23;11.90;99.20
29813;DHT22;16707;48.106;11.548;2023-04-24T09:22:54;11.90;98.40
29813;DHT22;16707;48.106;11.548;2023-04-24T09:25:31;12.10;98.40
29813;DHT22;16707;48.106;11.548;2023-04-24T09:28:02;12.30;98.00
29813;DHT22;16707;48.106;11.548;2023-04-24T09:30:32;12.50;97.60
29813;DHT22;16707;48.106;11.548;2023-04-24T09:33:10;12.40;96.60
29813;DHT22;16707;48.106;11.548;2023-04-24T09:35:40;12.70;96.60
29813;DHT22;16707;48.106;11.548;2023-04-24T09:38:07;12.80;95.10
29813;DHT22;16707;48.106;11.548;2023-04-24T09:40:38;13.20;95.10
29813;DHT22;16707;48.106;11.548;2023-04-24T09:43:13;13.70;93.80
29813;DHT22;16707;48.106;11.548;2023-04-24T09:45:43;14.10;92.10
29813;DHT22;16707;48.106;11.548;2023-04-24T09:48:10;14.20;91.80
29813;DHT22;16707;48.106;11.548;2023-04-24T09:50:37;14.50;92.40
29813;DHT22;16707;48.106;11.548;2023-04-24T09:53:06;14.50;91.50
29813;DHT22;16707;48.106;11.548;2023-04-24T09:55:44;14.30;90.90
29813;DHT22;16707;48.106;11.548;2023-04-24T09:58:16;14.40;91.50
29813;DHT22;16707;48.106;11.548;2023-04-24T10:00:46;14.20;90.80
29813;DHT22;16707;48.106;11.548;2023-04-24T10:03:17;14.40;91.90
29813;DHT22;16707;48.106;11.548;2023-04-24T10:05:47;14.50;90.40
29813;DHT22;16707;48.106;11.548;2023-04-24T10:08:14;14.40;90.40
29813;DHT22;16707;48.106;11.548;2023-04-24T10:10:44;14.60;90.90
29813;DHT22;16707;48.106;11.548;2023-04-24T10:13:12;15.00;88.80
29813;DHT22;16707;48.106;11.548;2023-04-24T10:15:41;14.80;88.70
29813;DHT22;16707;48.106;11.548;2023-04-24T10:18:21;14.80;88.20
29813;DHT22;16707;48.106;11.548;2023-04-24T10:21:00;14.80;87.80
29813;DHT22;16707;48.106;11.548;2023-04-24T10:23:33;14.60;87.50
29813;DHT22;16707;48.106;11.548;2023-04-24T10:26:04;14.60;88.40
29813;DHT22;16707;48.106;11.548;2023-04-24T10:28:38;14.60;87.60
29813;DHT22;16707;48.106;11.548;2023-04-24T10:31:06;15.00;86.50
29813;DHT22;16707;48.106;11.548;2023-04-24T10:33:34;15.10;87.50
29813;DHT22;16707;48.106;11.548;2023-04-24T10:36:10;15.60;85.40
29813;DHT22;16707;48.106;11.548;2023-04-24T10:38:42;15.50;83.80
29813;DHT22;16707;48.106;11.548;2023-04-24T10:41:14;15.30;84.90
29813;DHT22;16707;48.106;11.548;2023-04-24T10:43:48;14.80;85.90
29813;DHT22;16707;48.106;11.548;2023-04-24T10:46:20;14.20;88.00
29813;DHT22;16707;48.106;11.548;2023-04-24T10:48:55;14.10;91.00
29813;DHT22;16707;48.106;11.548;2023-04-24T10:51:45;14.20;90.70
29813;DHT22;16707;48.106;11.548;2023-04-24T10:54:29;14.10;91.30
29813;DHT22;16707;48.106;11.548;2023-04-24T10:57:29;12.50;92.90
29813;DHT22;16707;48.106;11.548;2023-04-24T11:00:21;11.90;96.80
29813;DHT22;16707;48.106;11.548;2023-04-24T11:02:55;11.60;99.90
29813;DHT22;16707;48.106;11.548;2023-04-24T11:05:50;11.50;99.90
29813;DHT22;16707;48.106;11.548;2023-04-24T11:08:30;11.70;99.90
29813;DHT22;16707;48.106;11.548;2023-04-24T11:11:00;12.20;99.60
29813;DHT22;16707;48.106;11.548;2023-04-24T11:16:43;13.30;97.00
29813;DHT22;16707;48.106;11.548;2023-04-24T11:19:21;13.90;94.80
29813;DHT22;16707;48.106;11.548;2023-04-24T11:21:55;14.40;93.70
29813;DHT22;16707;48.106;11.548;2023-04-24T11:24:30;14.60;93.00
29813;DHT22;16707;48.106;11.548;2023-04-24T11:27:06;14.70;91.90
29813;DHT22;16707;48.106;11.548;2023-04-24T11:29:46;14.40;90.40
29813;DHT22;16707;48.106;11.548;2023-04-24T11:32:26;14.40;90.80
29813;DHT22;16707;48.106;11.548;2023-04-24T11:34:55;14.70;88.80
29813;DHT22;16707;48.106;11.548;2023-04-24T11:37:35;14.70;90.60
29813;DHT22;16707;48.106;11.548;2023-04-24T11:40:08;14.80;89.20
29813;DHT22;16707;48.106;11.548;2023-04-24T11:42:41;15.30;88.40
29813;DHT22;16707;48.106;11.548;2023-04-24T11:45:17;15.30;89.10
29813;DHT22;16707;48.106;11.548;2023-04-24T11:47:45;15.20;86.20
29813;DHT22;16707;48.106;11.548;2023-04-24T11:50:14;15.10;88.60
29813;DHT22;16707;48.106;11.548;2023-04-24T11:52:48;14.80;88.60
29813;DHT22;16707;48.106;11.548;2023-04-24T11:55:24;14.80;90.30
29813;DHT22;16707;48.106;11.548;2023-04-24T11:57:57;14.60;90.30
29813;DHT22;16707;48.106;11.548;2023-04-24T12:00:32;14.30;87.50
29813;DHT22;16707;48.106;11.548;2023-04-24T12:03:05;14.00;87.90
29813;DHT22;16707;48.106;11.548;2023-04-24T12:05:41;13.60;91.20
29813;DHT22;16707;48.106;11.548;2023-04-24T12:08:11;13.60;91.40
29813;DHT22;16707;48.106;11.548;2023-04-24T12:10:39;13.60;90.90
29813;DHT22;16707;48.106;11.548;2023-04-24T12:13:09;13.90;91.30
29813;DHT22;16707;48.106;11.548;2023-04-24T12:15:40;14.30;90.40
29813;DHT22;16707;48.106;11.548;2023-04-24T12:18:11;14.70;90.20
29813;DHT22;16707;48.106;11.548;2023-04-24T12:20:45;14.70;88.50
29813;DHT22;16707;48.106;11.548;2023-04-24T12:23:12;14.80;87.70
29813;DHT22;16707;48.106;11.548;2023-04-24T12:25:39;14.80;86.40
29813;DHT22;16707;48.106;11.548;2023-04-24T12:28:11;14.70;87.30
29813;DHT22;16707;48.106;11.548;2023-04-24T12:30:42;14.50;88.50
29813;DHT22;16707;48.106;11.548;2023-04-24T12:33:17;14.50;88.50
29813;DHT22;16707;48.106;11.548;2023-04-24T12:35:44;15.00;88.80
29813;DHT22;16707;48.106;11.548;2023-04-24T12:38:16;15.40;88.70
29813;DHT22;16707;48.106;11.548;2023-04-24T12:40:43;15.90;86.90
29813;DHT22;16707;48.106;11.548;2023-04-24T12:43:14;15.80;84.80
29813;DHT22;16707;48.106;11.548;2023-04-24T12:45:44;16.10;86.90
29813;DHT22;16707;48.106;11.548;2023-04-24T12:48:14;16.00;85.00
29813;DHT22;16707;48.106;11.548;2023-04-24T12:50:45;16.10;78.00
29813;DHT22;16707;48.106;11.548;2023-04-24T12:53:13;16.20;76.50
29813;DHT22;16707;48.106;11.548;2023-04-24T12:55:43;16.00;84.50
29813;DHT22;16707;48.106;11.548;2023-04-24T12:58:14;15.40;87.60
29813;DHT22;16707;48.106;11.548;2023-04-24T13:00:41;15.30;89.90
29813;DHT22;16707;48.106;11.548;2023-04-24T13:03:12;15.60;90.00
29813;DHT22;16707;48.106;11.548;2023-04-24T13:05:42;15.80;86.80
29813;DHT22;16707;48.106;11.548;2023-04-24T13:08:10;15.70;86.00
29813;DHT22;16707;48.106;11.548;2023-04-24T13:10:38;15.70;86.10
29813;DHT22;16707;48.106;11.548;2023-04-24T13:13:06;15.90;85.60
29813;DHT22;16707;48.106;11.548;2023-04-24T13:15:36;16.10;82.50
29813;DHT22;16707;48.106;11.548;2023-04-24T13:18:03;15.80;82.30
29813;DHT22;16707;48.106;11.548;2023-04-24T13:20:34;15.60;83.10
29813;DHT22;16707;48.106;11.548;2023-04-24T13:23:02;15.10;83.90
29813;DHT22;16707;48.106;11.548;2023-04-24T13:25:34;14.80;86.20
29813;DHT22;16707;48.106;11.548;2023-04-24T13:28:01;14.60;86.10
29813;DHT22;16707;48.106;11.548;2023-04-24T13:30:28;14.50;87.40
29813;DHT22;16707;48.106;11.548;2023-04-24T13:32:55;14.40;87.40
29813;DHT22;16707;48.106;11.548;2023-04-24T13:35:22;14.60;86.30
29813;DHT22;16707;48.106;11.548;2023-04-24T13:37:52;14.90;82.60
29813;DHT22;16707;48.106;11.548;2023-04-24T13:40:19;14.80;77.40
29813;DHT22;16707;48.106;11.548;2023-04-24T13:42:49;15.00;76.90
29813;DHT22;16707;48.106;11.548;2023-04-24T13:45:16;14.80;73.90
29813;DHT22;16707;48.106;11.548;2023-04-24T13:47:43;14.60;74.80
29813;DHT22;16707;48.106;11.548;2023-04-24T13:50:11;14.80;77.20
29813;DHT22;16707;48.106;11.548;2023-04-24T13:52:38;15.00;76.60
29813;DHT22;16707;48.106;11.548;2023-04-24T13:55:07;15.20;76.70
29813;DHT22;16707;48.106;11.548;2023-04-24T13:57:36;14.90;76.10
29813;DHT22;16707;48.106;11.548;2023-04-24T14:00:05;14.90;78.70
29813;DHT22;16707;48.106;11.548;2023-04-24T14:02:46;14.80;80.00
29813;DHT22;16707;48.106;11.548;2023-04-24T14:05:13;14.40;77.80
29813;DHT22;16707;48.106;11.548;2023-04-24T14:07:48;14.40;78.90
29813;DHT22;16707;48.106;11.548;2023-04-24T14:10:16;14.40;77.90
29813;DHT22;16707;48.106;11.548;2023-04-24T14:12:43;14.90;78.60
29813;DHT22;16707;48.106;11.548;2023-04-24T14:15:10;15.30;75.30
29813;DHT22;16707;48.106;11.548;2023-04-24T14:17:39;15.30;75.00
29813;DHT22;16707;48.106;11.548;2023-04-24T14:20:07;15.40;73.60
29813;DHT22;16707;48.106;11.548;2023-04-24T14:22:35;15.30;68.70
29813;DHT22;16707;48.106;11.548;2023-04-24T14:25:03;15.10;68.60
29813;DHT22;16707;48.106;11.548;2023-04-24T14:27:36;15.00;67.70
29813;DHT22;16707;48.106;11.548;2023-04-24T14:30:04;15.20;66.80
29813;DHT22;16707;48.106;11.548;2023-04-24T14:32:31;15.00;67.00
29813;DHT22;16707;48.106;11.548;2023-04-24T14:35:01;14.70;67.20
29813;DHT22;16707;48.106;11.548;2023-04-24T14:37:29;14.60;68.30
29813;DHT22;16707;48.106;11.548;2023-04-24T14:39:56;14.50;68.10
29813;DHT22;16707;48.106;11.548;2023-04-24T14:42:23;14.60;68.40
29813;DHT22;16707;48.106;11.548;2023-04-24T14:44:52;14.90;66.70
29813;DHT22;16707;48.106;11.548;2023-04-24T14:47:19;15.00;68.40
29813;DHT22;16707;48.106;11.548;2023-04-24T14:49:50;14.90;67.00
29813;DHT22;16707;48.106;11.548;2023-04-24T14:52:20;14.80;68.60
29813;DHT22;16707;48.106;11.548;2023-04-24T14:54:49;14.60;67.60
29813;DHT22;16707;48.106;11.548;2023-04-24T14:57:17;14.50;65.90
29813;DHT22;16707;48.106;11.548;2023-04-24T14:59:44;14.30;66.30
29813;DHT22;16707;48.106;11.548;2023-04-24T15:02:12;14.30;66.40
29813;DHT22;16707;48.106;11.548;2023-04-24T15:04:39;14.50;65.00
29813;DHT22;16707;48.106;11.548;2023-04-24T15:07:09;14.60;63.70
29813;DHT22;16707;48.106;11.548;2023-04-24T15:09:38;14.50;64.40
29813;DHT22;16707;48.106;11.548;2023-04-24T15:12:11;14.40;64.40
29813;DHT22;16707;48.106;11.548;2023-04-24T15:14:44;14.40;64.90
29813;DHT22;16707;48.106;11.548;2023-04-24T15:17:17;14.60;64.30
29813;DHT22;16707;48.106;11.548;2023-04-24T15:19:45;14.40;62.10
29813;DHT22;16707;48.106;11.548;2023-04-24T15:22:27;14.30;63.10
29813;DHT22;16707;48.106;11.548;2023-04-24T15:24:58;14.60;62.80
29813;DHT22;16707;48.106;11.548;2023-04-24T15:27:25;14.70;61.70
29813;DHT22;16707;48.106;11.548;2023-04-24T15:29:55;15.10;59.60
29813;DHT22;16707;48.106;11.548;2023-04-24T15:32:25;15.20;58.90
29813;DHT22;16707;48.106;11.548;2023-04-24T15:34:52;15.30;58.10
29813;DHT22;16707;48.106;11.548;2023-04-24T15:37:22;14.90;58.20
29813;DHT22;16707;48.106;11.548;2023-04-24T15:39:50;14.70;58.60
29813;DHT22;16707;48.106;11.548;2023-04-24T15:42:19;14.70;58.40
29813;DHT22;16707;48.106;11.548;2023-04-24T15:44:46;14.50;58.50